Time;durP1;ratioP1;P1;durP2;ratioP2;P2;SDS_P1;SDS_P2;PMS_P1;PMS_P2;Temp;Humidity;BMP_temperature;BMP_pressure;BME280_temperature;BME280_humidity;BME280_pressure;Samples;Min_cycle;Max_cycle;Signal;HPM_P1;HPM_P2
2022/03/20 00:00:03;;;;;;;2.45;1.63;;;18.40;46.50;;;;;;6110440;23;20229;-86
2022/03/20 00:02:33;;;;;;;2.63;1.85;;;18.40;46.40;;;;;;6086370;23;20474;-86
2022/03/20 00:05:02;;;;;;;1.95;1.27;;;18.40;46.50;;;;;;6063240;23;20151;-88
2022/03/20 00:07:33;;;;;;;1.55;1.45;;;18.40;46.40;;;;;;6136508;23;20139;-86
2022/03/20 00:10:00;;;;;;;1.67;1.40;;;18.40;46.50;;;;;;6111331;23;20143;-89
2022/03/20 00:12:28;;;;;;;1.85;1.45;;;18.30;46.50;;;;;;6135982;23;20137;-88
2022/03/20 00:14:58;;;;;;;3.58;1.50;;;18.40;46.50;;;;;;6110179;23;20158;-86
2022/03/20 00:17:29;;;;;;;2.03;1.45;;;18.30;46.40;;;;;;6062073;23;20190;-86
2022/03/20 00:19:56;;;;;;;1.50;1.40;;;18.40;46.50;;;;;;6086446;23;20175;-87
2022/03/20 00:22:22;;;;;;;1.60;1.27;;;18.30;46.40;;;;;;6062080;23;20205;-86
2022/03/20 00:24:52;;;;;;;1.77;1.60;;;18.30;46.60;;;;;;6135817;23;20181;-86
2022/03/20 00:27:22;;;;;;;2.33;1.60;;;18.30;46.60;;;;;;6086956;23;20181;-88
2022/03/20 00:29:50;;;;;;;1.52;1.23;;;18.30;46.60;;;;;;6086043;23;20154;-88
2022/03/20 00:32:19;;;;;;;1.58;1.48;;;18.30;46.60;;;;;;6086496;23;20607;-87
2022/03/20 00:34:49;;;;;;;1.50;1.40;;;18.30;46.70;;;;;;6136154;23;20129;-86
2022/03/20 00:37:15;;;;;;;1.52;1.38;;;18.30;46.70;;;;;;6061690;23;20190;-86
2022/03/20 00:39:41;;;;;;;1.70;1.50;;;18.30;46.60;;;;;;6110837;23;20594;-87
2022/03/20 00:42:07;;;;;;;1.75;1.30;;;18.30;46.60;;;;;;6111353;23;20150;-87
2022/03/20 00:44:33;;;;;;;1.50;1.40;;;18.30;46.30;;;;;;6110489;23;20617;-87
2022/03/20 00:47:03;;;;;;;1.58;1.35;;;18.30;46.50;;;;;;6111071;23;20142;-87
2022/03/20 00:49:31;;;;;;;1.85;1.30;;;18.30;46.60;;;;;;6085650;23;20153;-87
2022/03/20 00:51:59;;;;;;;3.55;1.30;;;18.30;46.70;;;;;;6086250;23;20235;-87
2022/03/20 00:54:27;;;;;;;2.10;1.70;;;18.30;46.70;;;;;;6109954;23;20182;-86
2022/03/20 00:56:55;;;;;;;1.50;1.40;;;18.20;46.70;;;;;;6086070;23;20183;-88
2022/03/20 00:59:26;;;;;;;2.10;1.65;;;18.20;46.60;;;;;;6063929;23;20185;-87
2022/03/20 01:01:52;;;;;;;1.55;1.45;;;18.20;46.70;;;;;;6112530;23;20150;-89
2022/03/20 01:04:19;;;;;;;1.83;1.42;;;18.20;46.80;;;;;;6136801;23;20139;-88
2022/03/20 01:06:45;;;;;;;1.70;1.42;;;18.20;46.80;;;;;;6161327;23;20197;-87
2022/03/20 01:09:11;;;;;;;1.80;1.40;;;18.20;46.80;;;;;;6137734;23;20225;-88
2022/03/20 01:11:38;;;;;;;1.52;1.30;;;18.20;46.70;;;;;;6112491;23;20158;-86
2022/03/20 01:14:06;;;;;;;2.17;1.40;;;18.20;46.80;;;;;;6087700;23;20205;-88
2022/03/20 01:16:34;;;;;;;1.88;1.60;;;18.20;46.60;;;;;;6063921;23;20194;-86
2022/03/20 01:19:00;;;;;;;2.08;1.35;;;18.20;46.70;;;;;;6137278;23;20155;-86
2022/03/20 01:21:26;;;;;;;2.25;1.67;;;18.20;46.70;;;;;;6112183;23;20147;-87
2022/03/20 01:23:56;;;;;;;1.60;1.50;;;18.20;46.70;;;;;;6136798;23;20139;-87
2022/03/20 01:26:25;;;;;;;1.50;1.35;;;18.20;46.80;;;;;;6063877;23;20150;-86
2022/03/20 01:28:55;;;;;;;2.13;1.50;;;18.20;46.70;;;;;;6087647;23;20151;-87
2022/03/20 01:31:28;;;;;;;1.92;1.58;;;18.20;46.80;;;;;;6063778;23;20482;-88
2022/03/20 01:33:58;;;;;;;1.38;1.15;;;18.20;46.80;;;;;;6113092;23;20209;-88
2022/03/20 01:36:27;;;;;;;1.73;1.40;;;18.20;46.90;;;;;;6089118;23;20181;-87
2022/03/20 01:38:56;;;;;;;2.05;1.67;;;18.20;46.90;;;;;;6111513;23;20163;-87
2022/03/20 01:41:22;;;;;;;2.28;1.60;;;18.10;46.90;;;;;;6111536;23;20155;-86
2022/03/20 01:43:51;;;;;;;1.83;1.55;;;18.10;46.90;;;;;;6137544;23;20184;-88
2022/03/20 01:46:17;;;;;;;2.45;1.65;;;18.10;47.50;;;;;;6137217;23;20134;-87
2022/03/20 01:48:43;;;;;;;2.88;1.50;;;18.10;47.00;;;;;;6112186;23;20294;-87
2022/03/20 01:51:10;;;;;;;3.35;1.23;;;18.10;46.80;;;;;;6136527;23;20214;-86
2022/03/20 01:53:36;;;;;;;1.85;1.50;;;18.20;46.90;;;;;;6136608;23;20567;-88
2022/03/20 01:56:03;;;;;;;2.03;1.38;;;18.10;46.90;;;;;;6136532;23;20162;-87
2022/03/20 01:58:30;;;;;;;2.10;1.30;;;18.10;46.90;;;;;;6111967;23;20154;-87
2022/03/20 02:00:56;;;;;;;2.45;1.50;;;18.10;46.90;;;;;;6112024;23;20142;-88
2022/03/20 02:03:23;;;;;;;2.47;1.40;;;18.10;46.90;;;;;;6112016;23;20135;-86
2022/03/20 02:05:48;;;;;;;1.63;1.30;;;18.10;47.50;;;;;;6160930;23;20595;-87
2022/03/20 02:08:25;;;;;;;1.83;1.40;;;18.10;46.90;;;;;;6112154;23;20154;-86
2022/03/20 02:10:55;;;;;;;1.75;1.58;;;18.10;47.00;;;;;;6137482;23;20197;-87
2022/03/20 02:13:26;;;;;;;2.13;1.60;;;18.10;46.90;;;;;;6063436;23;20146;-87
2022/03/20 02:15:54;;;;;;;2.30;1.27;;;18.10;47.00;;;;;;6088370;23;20232;-86
2022/03/20 02:18:23;;;;;;;2.17;1.55;;;18.10;47.00;;;;;;6087159;23;20559;-86
2022/03/20 02:20:55;;;;;;;2.28;1.35;;;18.10;46.80;;;;;;6111959;23;20189;-88
2022/03/20 02:23:23;;;;;;;1.60;1.50;;;18.10;46.90;;;;;;6087967;23;20195;-87
2022/03/20 02:25:54;;;;;;;1.88;1.30;;;18.00;46.90;;;;;;6063469;23;20162;-86
2022/03/20 02:28:20;;;;;;;2.00;1.52;;;18.10;46.90;;;;;;6087033;23;20150;-87
2022/03/20 02:30:50;;;;;;;1.35;1.25;;;18.00;46.90;;;;;;6160840;23;20163;-86
2022/03/20 02:33:23;;;;;;;1.77;1.45;;;18.10;47.00;;;;;;6111319;23;20205;-87
2022/03/20 02:35:51;;;;;;;1.92;1.50;;;18.10;47.00;;;;;;6065877;23;20298;-88
2022/03/20 02:38:18;;;;;;;1.83;1.38;;;18.10;46.90;;;;;;6112701;23;20150;-86
2022/03/20 02:40:44;;;;;;;2.42;1.63;;;18.10;46.90;;;;;;6112418;23;20234;-86
2022/03/20 02:43:11;;;;;;;2.75;1.60;;;18.10;47.00;;;;;;6136692;23;20537;-86
2022/03/20 02:45:38;;;;;;;2.35;1.60;;;18.10;47.00;;;;;;6136598;23;20132;-86
2022/03/20 02:48:05;;;;;;;2.00;1.60;;;18.10;47.00;;;;;;6136129;23;20460;-86
2022/03/20 02:50:32;;;;;;;2.70;1.60;;;18.10;47.10;;;;;;6111669;23;20197;-89
2022/03/20 02:53:02;;;;;;;1.55;1.38;;;18.10;47.10;;;;;;6136294;23;20135;-86
2022/03/20 02:55:35;;;;;;;2.63;1.60;;;18.10;47.00;;;;;;6112438;23;20474;-86
2022/03/20 02:58:02;;;;;;;1.48;1.38;;;18.10;47.10;;;;;;6137033;23;20147;-88
2022/03/20 03:00:29;;;;;;;1.50;1.40;;;18.10;47.10;;;;;;6136763;23;20143;-86
2022/03/20 03:02:56;;;;;;;1.40;1.27;;;18.10;47.10;;;;;;6136693;23;20131;-86
2022/03/20 03:05:26;;;;;;;1.80;1.42;;;18.10;47.10;;;;;;6111695;23;20483;-86
2022/03/20 03:10:56;;;;;;;1.63;1.25;;;18.00;47.00;;;;;;6102284;23;20178;-88
2022/03/20 03:13:39;;;;;;;1.35;1.25;;;18.00;47.10;;;;;;6094864;23;20150;-88
2022/03/20 03:16:08;;;;;;;1.75;1.38;;;18.10;47.00;;;;;;6145504;23;20155;-88
2022/03/20 03:18:39;;;;;;;1.77;1.58;;;18.00;47.10;;;;;;6142384;23;20202;-88
2022/03/20 03:21:12;;;;;;;1.80;1.55;;;18.00;47.80;;;;;;6141957;23;20132;-88
2022/03/20 03:23:41;;;;;;;1.80;1.50;;;18.00;47.00;;;;;;6070397;23;20261;-86
2022/03/20 03:26:11;;;;;;;1.65;1.48;;;18.00;46.90;;;;;;6087184;23;20173;-85
2022/03/20 03:28:40;;;;;;;2.38;1.33;;;18.00;47.20;;;;;;6087462;23;20176;-86
2022/03/20 03:31:10;;;;;;;1.55;1.33;;;18.00;47.10;;;;;;6093870;23;20154;-85
2022/03/20 03:36:23;;;;;;;1.60;1.50;;;18.00;47.10;;;;;;6132450;23;20182;-86
2022/03/20 03:38:48;;;;;;;2.22;1.60;;;18.00;47.00;;;;;;6123899;23;20150;-85
2022/03/20 03:41:16;;;;;;;2.42;1.55;;;18.00;47.10;;;;;;6122722;23;20151;-88
2022/03/20 03:43:42;;;;;;;1.88;1.30;;;18.10;47.20;;;;;;6136402;23;20127;-87
2022/03/20 03:46:10;;;;;;;1.83;1.50;;;18.00;47.10;;;;;;6135578;23;20185;-87
2022/03/20 03:48:36;;;;;;;1.98;1.48;;;18.00;47.20;;;;;;6160341;23;20135;-87
2022/03/20 03:51:02;;;;;;;1.30;1.20;;;18.00;47.10;;;;;;6160224;23;20177;-89
2022/03/20 03:53:28;;;;;;;2.58;1.58;;;18.00;47.10;;;;;;6136654;23;20139;-86
2022/03/20 03:55:57;;;;;;;1.40;1.30;;;18.00;47.10;;;;;;6136046;23;20213;-88
2022/03/20 03:58:22;;;;;;;1.67;1.50;;;18.00;47.10;;;;;;6136620;23;20486;-88
2022/03/20 04:00:50;;;;;;;1.98;1.40;;;18.10;47.10;;;;;;6136413;23;20559;-87
2022/03/20 04:03:16;;;;;;;1.60;1.33;;;18.00;47.10;;;;;;6112766;23;20149;-88
2022/03/20 04:05:41;;;;;;;2.13;1.40;;;18.00;47.10;;;;;;6117287;23;20150;-85
2022/03/20 04:08:15;;;;;;;1.40;1.23;;;18.00;47.10;;;;;;6142911;23;20162;-85
2022/03/20 04:10:46;;;;;;;2.15;1.42;;;18.00;47.10;;;;;;6114419;23;20151;-88
2022/03/20 04:13:14;;;;;;;2.15;1.58;;;18.00;47.10;;;;;;6086297;23;20173;-87
2022/03/20 04:15:46;;;;;;;2.22;1.40;;;18.00;47.10;;;;;;6062238;23;20607;-86
2022/03/20 04:18:14;;;;;;;1.70;1.50;;;18.00;47.10;;;;;;6062135;23;20455;-87
2022/03/20 04:20:46;;;;;;;1.73;1.50;;;18.00;47.20;;;;;;6086677;23;20463;-86
2022/03/20 04:25:55;;;;;;;1.58;1.40;;;18.00;47.00;;;;;;6118757;23;20154;-89
2022/03/20 04:28:21;;;;;;;1.50;1.25;;;18.00;47.10;;;;;;6110576;23;20451;-86
2022/03/20 04:30:49;;;;;;;3.28;1.70;;;17.90;47.00;;;;;;6110957;23;20142;-87
2022/03/20 04:33:14;;;;;;;3.33;1.55;;;18.00;47.20;;;;;;6111821;23;20146;-87
2022/03/20 04:35:40;;;;;;;1.77;1.50;;;18.00;47.20;;;;;;6135059;23;20139;-88
2022/03/20 04:38:05;;;;;;;1.48;1.38;;;18.00;47.20;;;;;;6110688;23;20150;-88
2022/03/20 04:40:31;;;;;;;1.92;1.42;;;18.00;47.10;;;;;;6135345;23;20137;-89
2022/03/20 04:42:57;;;;;;;1.50;1.25;;;18.00;47.20;;;;;;6110849;23;20155;-88
2022/03/20 04:45:24;;;;;;;2.10;1.58;;;18.00;47.10;;;;;;6135168;23;20131;-88
2022/03/20 04:58:46;;;;;;;1.70;1.40;;;18.00;47.30;;;;;;6162168;23;20135;-88
2022/03/20 05:01:12;;;;;;;1.63;1.40;;;18.00;47.20;;;;;;6135263;23;20576;-88
2022/03/20 05:03:38;;;;;;;1.60;1.50;;;17.90;47.00;;;;;;6134921;23;20139;-87
2022/03/20 05:06:05;;;;;;;2.92;1.50;;;17.90;47.10;;;;;;6159318;23;20138;-86
2022/03/20 05:08:32;;;;;;;2.13;1.30;;;18.00;47.20;;;;;;6135179;23;20218;-88
2022/03/20 05:13:49;;;;;;;2.10;1.48;;;17.90;47.20;;;;;;6102532;23;20482;-86
2022/03/20 05:16:17;;;;;;;1.40;1.30;;;18.00;47.30;;;;;;6085695;23;20514;-89
2022/03/20 05:18:46;;;;;;;1.90;1.58;;;17.90;47.20;;;;;;6109762;23;20217;-86
2022/03/20 05:21:18;;;;;;;1.35;1.20;;;17.90;47.20;;;;;;6085633;23;20162;-87
2022/03/20 05:23:45;;;;;;;1.52;1.27;;;17.90;47.10;;;;;;6085344;23;20705;-86
2022/03/20 05:26:12;;;;;;;1.67;1.50;;;17.90;47.10;;;;;;6109272;23;20241;-85
2022/03/20 05:28:42;;;;;;;1.30;1.20;;;17.90;47.10;;;;;;6085370;23;20606;-86
2022/03/20 05:31:11;;;;;;;1.80;1.30;;;17.90;46.90;;;;;;6085629;23;20463;-88
2022/03/20 05:33:38;;;;;;;1.25;1.15;;;17.90;47.10;;;;;;6110098;23;20176;-88
2022/03/20 05:36:04;;;;;;;1.90;1.70;;;17.90;47.10;;;;;;6061641;23;20174;-88
2022/03/20 05:38:30;;;;;;;1.98;1.48;;;17.90;47.30;;;;;;6134553;23;20177;-86
2022/03/20 05:41:46;;;;;;;1.40;1.30;;;17.90;47.10;;;;;;6134926;23;20135;-86
2022/03/20 05:43:42;;;;;;;1.77;1.42;;;17.90;47.00;;;;;;6143505;23;20154;-87
2022/03/20 05:46:08;;;;;;;1.50;1.35;;;17.90;47.20;;;;;;6136326;23;20197;-87
2022/03/20 05:48:35;;;;;;;2.65;1.27;;;17.90;47.20;;;;;;6112405;23;20135;-88
2022/03/20 05:51:05;;;;;;;1.73;1.38;;;17.90;47.20;;;;;;6112870;23;20633;-86
2022/03/20 05:53:35;;;;;;;1.38;1.23;;;17.90;47.00;;;;;;6111179;23;20151;-88
2022/03/20 05:58:49;;;;;;;1.60;1.50;;;17.90;47.00;;;;;;6102761;23;20158;-87
2022/03/20 06:01:16;;;;;;;2.25;1.40;;;18.00;47.00;;;;;;6111026;23;20158;-86
2022/03/20 06:03:45;;;;;;;1.67;1.30;;;17.90;47.10;;;;;;6087461;23;20478;-87
2022/03/20 06:06:11;;;;;;;2.28;1.45;;;18.00;47.00;;;;;;6087230;23;20226;-87
2022/03/20 06:08:39;;;;;;;1.92;1.50;;;17.90;46.90;;;;;;6136277;23;20143;-86
2022/03/20 06:11:06;;;;;;;2.08;1.27;;;18.00;47.10;;;;;;6087900;23;20155;-86
2022/03/20 06:13:38;;;;;;;2.22;1.40;;;18.00;47.00;;;;;;6087232;23;20158;-86
2022/03/20 06:16:06;;;;;;;1.90;1.50;;;18.00;46.90;;;;;;6066412;23;20192;-88
2022/03/20 06:18:32;;;;;;;1.55;1.40;;;18.00;46.60;;;;;;6137354;23;20141;-88
2022/03/20 06:20:57;;;;;;;1.45;1.23;;;18.10;46.80;;;;;;6135808;23;20210;-87
2022/03/20 06:23:23;;;;;;;1.75;1.38;;;18.00;46.70;;;;;;6111658;23;20191;-87
2022/03/20 06:25:52;;;;;;;1.30;1.20;;;18.10;46.60;;;;;;6136257;23;20158;-86
2022/03/20 06:28:18;;;;;;;1.50;1.40;;;18.20;46.80;;;;;;6137050;23;20123;-88
2022/03/20 06:30:44;;;;;;;1.70;1.38;;;18.00;46.70;;;;;;6112043;23;20193;-88
2022/03/20 06:33:11;;;;;;;1.40;1.23;;;18.10;46.80;;;;;;6136022;23;20229;-89
2022/03/20 06:35:37;;;;;;;1.77;1.40;;;18.10;46.80;;;;;;6160452;23;20217;-87
2022/03/20 06:38:07;;;;;;;2.78;1.60;;;18.10;46.60;;;;;;6160980;23;20167;-85
2022/03/20 06:40:33;;;;;;;1.83;1.52;;;18.10;46.50;;;;;;6063424;23;20157;-88
2022/03/20 06:42:58;;;;;;;1.73;1.30;;;18.10;46.50;;;;;;6111313;23;20143;-87
2022/03/20 06:45:24;;;;;;;2.90;1.55;;;18.10;46.40;;;;;;6111397;23;20151;-86
2022/03/20 06:47:50;;;;;;;1.75;1.38;;;18.10;46.50;;;;;;6111493;23;20151;-86
2022/03/20 06:50:17;;;;;;;1.60;1.20;;;18.10;46.30;;;;;;6111759;23;20147;-86
2022/03/20 06:52:43;;;;;;;1.73;1.30;;;18.10;46.60;;;;;;6111352;23;20154;-88
2022/03/20 06:55:14;;;;;;;1.85;1.33;;;18.10;46.30;;;;;;6112369;23;20234;-85
2022/03/20 06:57:41;;;;;;;1.80;1.45;;;18.20;46.40;;;;;;6136374;23;20181;-85
2022/03/20 07:00:07;;;;;;;1.77;1.60;;;18.20;46.40;;;;;;6136339;23;20583;-86
2022/03/20 07:02:34;;;;;;;1.60;1.38;;;18.20;46.40;;;;;;6111371;23;20147;-87
2022/03/20 07:05:00;;;;;;;1.50;1.40;;;18.20;46.40;;;;;;6111739;23;20189;-87
2022/03/20 07:07:26;;;;;;;2.10;1.50;;;18.20;46.50;;;;;;6120540;23;20174;-84
2022/03/20 07:09:52;;;;;;;2.40;1.40;;;18.30;46.60;;;;;;6120196;23;20559;-84
2022/03/20 07:12:19;;;;;;;2.45;1.77;;;18.30;46.50;;;;;;6144158;23;20146;-84
2022/03/20 07:14:45;;;;;;;1.83;1.40;;;18.30;46.40;;;;;;6169201;23;20137;-84
2022/03/20 07:17:16;;;;;;;2.35;1.35;;;18.30;46.40;;;;;;6144854;23;20170;-84
2022/03/20 07:19:46;;;;;;;1.65;1.45;;;18.30;46.20;;;;;;6096015;23;20159;-84
2022/03/20 07:22:14;;;;;;;1.35;1.25;;;18.40;46.20;;;;;;6071764;23;20197;-84
2022/03/20 07:24:45;;;;;;;1.63;1.50;;;18.40;46.10;;;;;;6141824;23;20154;-90
2022/03/20 07:29:53;;;;;;;1.92;1.35;;;18.40;45.80;;;;;;6100226;23;20147;-85
2022/03/20 07:32:23;;;;;;;1.55;1.35;;;18.40;45.70;;;;;;6110677;23;20204;-85
2022/03/20 07:34:53;;;;;;;2.25;1.45;;;18.40;45.90;;;;;;6062390;23;20155;-86
2022/03/20 07:37:21;;;;;;;1.60;1.30;;;18.50;45.80;;;;;;6110686;23;20248;-84
2022/03/20 07:39:50;;;;;;;1.65;1.30;;;18.50;45.60;;;;;;6110630;23;20186;-84
2022/03/20 07:42:16;;;;;;;1.58;1.48;;;18.50;45.70;;;;;;6160382;23;20209;-86
2022/03/20 07:44:43;;;;;;;1.70;1.27;;;18.50;45.40;;;;;;6111098;23;20236;-87
2022/03/20 07:47:17;;;;;;;1.63;1.50;;;18.60;45.40;;;;;;6135722;23;20143;-84
2022/03/20 07:49:43;;;;;;;1.98;1.50;;;18.60;45.40;;;;;;6138792;23;20551;-85
2022/03/20 07:52:09;;;;;;;1.45;1.35;;;18.50;45.50;;;;;;6136057;23;20131;-85
2022/03/20 07:54:36;;;;;;;2.20;1.40;;;18.60;45.30;;;;;;6113281;23;20174;-89
2022/03/20 07:57:07;;;;;;;1.35;1.10;;;18.60;45.40;;;;;;6114624;23;20611;-86
2022/03/20 07:59:34;;;;;;;3.33;1.67;;;18.50;45.50;;;;;;6132179;23;20156;-84
2022/03/20 08:02:00;;;;;;;4.95;1.30;;;18.50;45.50;;;;;;6132657;23;20276;-84
2022/03/20 08:04:28;;;;;;;4.03;1.42;;;18.60;45.20;;;;;;6133445;23;20507;-86
2022/03/20 08:06:55;;;;;;;7.70;1.58;;;18.70;45.20;;;;;;6063484;23;20160;-83
2022/03/20 08:09:27;;;;;;;4.80;1.88;;;18.70;45.50;;;;;;6052439;23;20154;-83
2022/03/20 08:11:56;;;;;;;2.80;1.48;;;18.80;44.60;;;;;;6054523;23;20149;-84
2022/03/20 08:14:25;;;;;;;3.15;1.15;;;18.90;44.40;;;;;;6054760;23;20201;-86
2022/03/20 08:16:54;;;;;;;1.27;1.15;;;19.00;44.10;;;;;;6026073;23;20372;-84
2022/03/20 08:19:24;;;;;;;4.00;1.48;;;19.10;44.20;;;;;;6027089;23;20177;-84
2022/03/20 08:21:51;;;;;;;3.45;1.45;;;19.10;44.70;;;;;;6055239;23;20242;-85
2022/03/20 08:24:20;;;;;;;2.05;1.60;;;19.20;43.80;;;;;;6030355;23;20189;-86
2022/03/20 08:26:50;;;;;;;5.40;1.50;;;19.20;43.90;;;;;;6025056;23;20248;-88
2022/03/20 08:29:17;;;;;;;3.08;1.50;;;19.20;43.60;;;;;;6046342;23;20224;-88
2022/03/20 08:31:47;;;;;;;3.50;1.38;;;19.20;43.30;;;;;;6021415;23;20233;-87
2022/03/20 08:34:18;;;;;;;6.05;1.50;;;19.20;43.30;;;;;;5997332;23;20154;-87
2022/03/20 08:36:52;;;;;;;6.68;1.70;;;19.20;43.50;;;;;;5975404;23;20182;-86
2022/03/20 08:39:17;;;;;;;7.22;1.58;;;19.30;43.40;;;;;;6000307;23;20162;-85
2022/03/20 08:41:47;;;;;;;6.13;1.83;;;19.20;43.50;;;;;;6053441;23;20147;-87
2022/03/20 08:44:16;;;;;;;11.52;1.75;;;19.20;43.80;;;;;;6030545;23;20152;-86
2022/03/20 08:46:44;;;;;;;5.20;1.42;;;19.20;43.90;;;;;;6054458;23;20159;-88
2022/03/20 08:49:10;;;;;;;5.97;1.77;;;19.10;43.90;;;;;;6030816;23;20160;-86
2022/03/20 08:51:40;;;;;;;23.13;2.35;;;19.20;43.70;;;;;;6080340;23;20199;-84
2022/03/20 08:54:09;;;;;;;17.85;2.33;;;19.20;43.70;;;;;;6056836;23;20215;-86
2022/03/20 08:56:37;;;;;;;26.25;3.17;;;19.20;43.60;;;;;;6034903;23;20587;-88
2022/03/20 08:59:06;;;;;;;18.73;2.28;;;19.20;43.80;;;;;;6055722;23;20156;-85
2022/03/20 09:01:35;;;;;;;17.90;2.47;;;19.30;43.60;;;;;;6056363;23;20244;-86
2022/03/20 09:04:03;;;;;;;26.67;2.88;;;19.30;43.90;;;;;;6079533;23;20584;-84
2022/03/20 09:06:33;;;;;;;20.58;2.42;;;19.30;44.30;;;;;;6082720;23;20162;-84
2022/03/20 09:09:03;;;;;;;17.85;2.00;;;19.30;44.70;;;;;;6091546;23;20151;-85
2022/03/20 09:11:36;;;;;;;16.77;2.10;;;19.20;44.50;;;;;;6117652;23;20161;-84
2022/03/20 09:14:09;;;;;;;16.08;2.20;;;19.20;44.40;;;;;;6092237;23;20147;-84
2022/03/20 09:19:29;;;;;;;10.15;1.77;;;19.30;43.70;;;;;;6108915;23;20282;-84
2022/03/20 09:21:55;;;;;;;14.65;2.00;;;19.40;43.50;;;;;;6071508;23;20217;-84
2022/03/20 09:24:26;;;;;;;12.52;2.13;;;19.40;43.40;;;;;;6120024;23;20147;-83
2022/03/20 09:26:52;;;;;;;15.45;2.25;;;19.40;43.70;;;;;;6095942;23;20202;-85
2022/03/20 09:29:22;;;;;;;12.27;1.73;;;19.30;44.20;;;;;;6064703;23;20151;-87
2022/03/20 09:31:52;;;;;;;7.50;1.90;;;19.30;44.20;;;;;;6070751;23;20249;-84
2022/03/20 09:34:19;;;;;;;10.93;1.80;;;19.30;43.90;;;;;;6073078;23;20177;-87
2022/03/20 09:36:45;;;;;;;9.93;1.73;;;19.30;44.00;;;;;;6145915;23;20198;-85
2022/03/20 09:39:12;;;;;;;11.63;2.53;;;19.40;43.60;;;;;;6167484;23;20159;-85
2022/03/20 09:41:41;;;;;;;12.93;2.05;;;19.40;44.00;;;;;;6144224;23;20143;-84
2022/03/20 09:44:09;;;;;;;11.70;1.80;;;19.30;43.70;;;;;;6144149;23;20146;-86
2022/03/20 09:46:36;;;;;;;5.55;1.58;;;19.40;44.00;;;;;;6091574;23;20489;-85
2022/03/20 09:49:08;;;;;;;8.52;1.67;;;19.50;44.10;;;;;;6120152;23;20142;-87
2022/03/20 09:51:42;;;;;;;12.48;2.17;;;19.40;44.10;;;;;;6076317;23;20161;-85
2022/03/20 09:54:13;;;;;;;16.48;1.80;;;19.40;44.70;;;;;;6074198;23;20160;-87
2022/03/20 09:56:44;;;;;;;13.20;2.10;;;19.30;44.40;;;;;;6097812;23;20202;-87
2022/03/20 09:59:15;;;;;;;8.68;1.75;;;19.40;44.50;;;;;;6093590;23;20162;-86
2022/03/20 10:01:41;;;;;;;12.63;1.80;;;19.50;44.00;;;;;;6090555;23;20155;-83
2022/03/20 10:04:10;;;;;;;10.23;2.20;;;19.40;44.30;;;;;;6091820;23;20150;-83
2022/03/20 10:06:41;;;;;;;5.82;1.42;;;19.40;44.80;;;;;;6142854;23;20153;-85
2022/03/20 10:09:09;;;;;;;15.52;1.75;;;19.40;44.50;;;;;;6093849;23;20147;-85
2022/03/20 10:11:37;;;;;;;9.27;1.70;;;19.40;44.40;;;;;;6170278;23;20145;-84
2022/03/20 10:14:06;;;;;;;11.63;1.63;;;19.30;44.60;;;;;;6171203;23;20127;-85
2022/03/20 10:16:32;;;;;;;10.25;1.70;;;19.30;45.00;;;;;;6172429;23;20174;-84
2022/03/20 10:19:18;;;;;;;8.43;2.20;;;19.30;44.70;;;;;;6172203;23;20467;-85
2022/03/20 10:21:45;;;;;;;15.30;1.90;;;19.30;44.90;;;;;;6130785;23;20177;-83
2022/03/20 10:24:21;;;;;;;9.30;1.63;;;19.20;44.80;;;;;;6149386;23;20165;-83
2022/03/20 10:27:08;;;;;;;9.30;1.90;;;19.20;44.80;;;;;;6102996;23;20207;-84
2022/03/20 10:29:47;;;;;;;8.88;2.05;;;19.30;44.70;;;;;;6102329;23;20151;-82
2022/03/20 10:32:13;;;;;;;8.50;1.88;;;19.20;45.50;;;;;;6175418;23;20135;-84
2022/03/20 10:34:59;;;;;;;11.13;1.63;;;19.20;45.80;;;;;;6174599;23;20570;-84
2022/03/20 10:37:44;;;;;;;5.50;1.70;;;19.20;45.10;;;;;;6105489;23;20193;-86
2022/03/20 10:40:12;;;;;;;9.90;1.80;;;19.20;45.60;;;;;;6173680;23;20162;-84
2022/03/20 10:42:38;;;;;;;9.13;1.75;;;19.30;45.40;;;;;;6173522;23;20230;-84
2022/03/20 10:45:07;;;;;;;13.35;1.92;;;19.30;45.60;;;;;;6149577;23;20206;-82
2022/03/20 10:47:38;;;;;;;8.55;1.88;;;19.20;45.70;;;;;;6075739;23;20158;-84
2022/03/20 10:50:12;;;;;;;7.47;1.95;;;19.20;45.50;;;;;;6099961;23;20161;-82
2022/03/20 10:52:39;;;;;;;4.05;1.75;;;19.20;45.60;;;;;;6074520;23;20692;-83
2022/03/20 10:55:10;;;;;;;7.85;1.50;;;19.20;45.20;;;;;;6099519;23;20250;-83
2022/03/20 10:57:41;;;;;;;8.15;1.55;;;19.20;45.20;;;;;;6097975;23;20182;-83
2022/03/20 11:00:11;;;;;;;7.85;1.40;;;19.20;45.00;;;;;;6098194;23;20165;-86
2022/03/20 11:02:39;;;;;;;7.18;1.65;;;19.30;45.00;;;;;;6145423;23;20178;-85
2022/03/20 11:05:10;;;;;;;7.03;1.58;;;19.20;45.00;;;;;;6169789;23;20153;-81
2022/03/20 11:07:43;;;;;;;8.10;1.65;;;19.20;45.40;;;;;;6094514;23;20150;-88
2022/03/20 11:10:11;;;;;;;11.38;1.60;;;19.20;45.50;;;;;;6094868;23;20155;-85
2022/03/20 11:12:38;;;;;;;6.30;1.60;;;19.20;45.40;;;;;;6145184;23;20582;-87
2022/03/20 11:15:06;;;;;;;4.75;1.30;;;19.20;44.90;;;;;;6082770;23;20551;-86
2022/03/20 11:17:45;;;;;;;8.52;1.85;;;19.20;44.90;;;;;;6056401;23;20180;-84
2022/03/20 11:20:12;;;;;;;10.10;2.03;;;19.30;45.70;;;;;;6054899;23;20251;-86
2022/03/20 11:22:48;;;;;;;8.65;1.75;;;19.20;45.60;;;;;;6057354;23;20196;-83
2022/03/20 11:25:17;;;;;;;7.53;1.63;;;19.30;45.10;;;;;;6086179;23;20148;-82
2022/03/20 11:27:43;;;;;;;5.63;1.48;;;19.30;45.30;;;;;;6082736;23;20221;-82
2022/03/20 11:30:13;;;;;;;5.03;1.50;;;19.30;45.40;;;;;;6106724;23;20589;-83
2022/03/20 11:32:39;;;;;;;6.18;1.75;;;19.20;45.10;;;;;;6012377;23;20184;-84
2022/03/20 11:35:09;;;;;;;5.15;1.65;;;19.30;45.40;;;;;;6083569;23;20231;-82
2022/03/20 11:37:42;;;;;;;7.35;1.83;;;19.30;45.00;;;;;;6012832;23;20181;-82
2022/03/20 11:40:12;;;;;;;6.72;1.80;;;19.30;45.20;;;;;;6056689;23;20156;-84
2022/03/20 11:42:44;;;;;;;7.18;1.70;;;19.30;45.60;;;;;;6102329;23;20141;-84
2022/03/20 11:45:17;;;;;;;5.30;1.23;;;19.40;46.00;;;;;;6047949;23;20181;-84
2022/03/20 11:47:45;;;;;;;8.43;1.83;;;19.30;45.00;;;;;;6073450;23;20158;-83
2022/03/20 11:50:51;;;;;;;7.78;1.77;;;19.30;45.40;;;;;;6068854;23;20151;-84
2022/03/20 11:53:31;;;;;;;7.63;1.50;;;19.40;45.30;;;;;;6127431;23;20184;-84
2022/03/20 11:56:04;;;;;;;4.00;1.40;;;19.30;44.50;;;;;;6070687;23;20197;-87
2022/03/20 11:58:37;;;;;;;7.13;1.77;;;19.40;45.40;;;;;;6069340;23;20158;-85
2022/03/20 12:01:12;;;;;;;4.47;1.50;;;19.40;45.50;;;;;;6091440;23;20246;-86
2022/03/20 12:04:04;;;;;;;6.53;1.63;;;19.40;45.50;;;;;;6068912;23;20161;-85
2022/03/20 12:06:57;;;;;;;7.32;1.83;;;19.40;46.20;;;;;;6194415;23;20139;-88
2022/03/20 12:09:37;;;;;;;8.88;1.50;;;19.40;46.00;;;;;;6148426;23;20478;-85
2022/03/20 12:12:25;;;;;;;4.82;1.42;;;19.40;46.00;;;;;;6075094;23;20174;-85
2022/03/20 12:14:53;;;;;;;9.23;1.42;;;19.50;45.70;;;;;;6194701;23;20559;-87
2022/03/20 12:17:19;;;;;;;3.95;1.42;;;19.40;45.20;;;;;;6140215;23;20504;-87
2022/03/20 12:19:52;;;;;;;5.55;1.40;;;19.50;45.50;;;;;;6137594;23;20261;-86
2022/03/20 12:22:33;;;;;;;3.80;1.48;;;19.40;45.30;;;;;;6163582;23;20194;-85
2022/03/20 12:25:02;;;;;;;4.18;1.40;;;19.50;46.00;;;;;;6140823;23;20158;-87
2022/03/20 12:27:43;;;;;;;4.35;1.35;;;19.40;44.90;;;;;;6164170;23;20220;-88
2022/03/20 12:30:30;;;;;;;5.13;1.60;;;19.50;45.70;;;;;;6138322;23;20146;-87
2022/03/20 12:33:02;;;;;;;5.65;1.40;;;19.30;46.60;;;;;;6142559;23;20146;-85
2022/03/20 12:35:41;;;;;;;5.55;1.63;;;19.40;46.70;;;;;;6089157;23;20159;-84
2022/03/20 12:38:41;;;;;;;4.82;1.58;;;19.30;46.10;;;;;;6072803;23;20170;-87
2022/03/20 12:41:13;;;;;;;3.33;1.20;;;19.30;45.00;;;;;;6145684;23;20155;-84
2022/03/20 12:43:55;;;;;;;6.70;1.50;;;19.40;45.50;;;;;;6147995;23;20202;-83
2022/03/20 12:46:29;;;;;;;5.35;1.70;;;19.30;45.30;;;;;;6056461;23;20154;-84
2022/03/20 12:49:04;;;;;;;8.20;1.70;;;19.40;45.90;;;;;;6071399;23;20193;-85
2022/03/20 12:51:36;;;;;;;5.68;1.73;;;19.40;46.10;;;;;;6095395;23;20480;-82
2022/03/20 12:54:10;;;;;;;3.88;1.58;;;19.30;45.90;;;;;;6073660;23;20162;-83
2022/03/20 12:56:54;;;;;;;4.50;1.30;;;19.40;45.40;;;;;;6101032;23;20205;-82
2022/03/20 12:59:25;;;;;;;5.75;1.40;;;19.40;45.90;;;;;;6124170;23;20158;-86
2022/03/20 13:01:55;;;;;;;5.22;1.58;;;19.40;45.50;;;;;;6077762;23;20641;-83
2022/03/20 13:04:23;;;;;;;2.95;1.40;;;19.40;45.10;;;;;;6079143;23;20153;-83
2022/03/20 13:06:52;;;;;;;4.13;1.27;;;19.40;45.50;;;;;;6078034;23;20151;-83
2022/03/20 13:09:20;;;;;;;5.30;1.45;;;19.50;45.20;;;;;;6103009;23;20157;-83
2022/03/20 13:11:48;;;;;;;4.78;1.30;;;19.50;45.60;;;;;;6125490;23;20146;-83
2022/03/20 13:14:21;;;;;;;2.83;1.35;;;19.50;46.00;;;;;;6124389;23;20157;-83
2022/03/20 13:16:51;;;;;;;3.05;1.10;;;19.50;45.40;;;;;;6099714;23;20233;-83
2022/03/20 13:19:35;;;;;;;4.60;1.48;;;19.50;45.30;;;;;;6126721;23;20606;-83
2022/03/20 13:22:03;;;;;;;6.30;1.27;;;19.50;45.30;;;;;;6101004;23;20194;-84
2022/03/20 13:24:35;;;;;;;5.90;1.60;;;19.40;45.60;;;;;;6149728;23;20151;-81
2022/03/20 13:27:04;;;;;;;3.58;1.48;;;19.50;46.10;;;;;;6101424;23;20155;-82